Sturgeon Bay, WI

5:49 PM CDT on May 29, 2015 (GMT -0500)
Austin Straubel International | | Change Station
CLOSE
Current Station
Airport
Location: Green Bay,
Elevation: 686 ft
Nearby Weather Stations

Elev 686 ft 44.48 °N, 88.14 °W | Updated 56 minutes ago

Partly Cloudy
Partly Cloudy
75 °F
Feels Like 75 °F
N
12
Wind Variable Wind from SSE

Today
High -- | Low -- °F
--% Chance of Precip.
Yesterday
High -- | Low -- °F
Precip. -- in
5:08 AM 8:25 PM
Waxing Gibbous, 86% visible
Pressure 29.86 in
Visibility 10.0 miles
Clouds Scattered Clouds 4200 ft
Dew Point 66 °F
Humidity 73%
Rainfall 0.01 in
Snow Depth Not available.
UV 3 out of 12
Pollen 5.20 out of 12
Air Quality Not available.
Flu Activity Sporadic
METAR KGRB 292153Z 16010KT 10SM SCT042 24/19 A2987 RMK AO2 SLP112 T02390189

More Conditions Fewer Conditions

Pressure 29.86 in
Visibility 10.0 miles
Clouds Scattered Clouds 4200 ft
Dew Point 66 °F
Humidity 73%
Rainfall 0.01 in
Snow Depth Not available.
UV 3 out of 12
Pollen 5.20 out of 12
Air Quality Not available.
Flu Activity Sporadic
METAR KGRB 292153Z 16010KT 10SM SCT042 24/19 A2987 RMK AO2 SLP112 T02390189

More Conditions Fewer Conditions

10-Day Weather Forecast

Almanac

Astronomy

May. 29, 2015 Rise Set
Actual Time
Civil Twilight
Nautical Twilight
Astronomical Twilight
Moon
Length of Visible Light
Length of Day
Tomorrow will be .
, % of the Moon is Illuminated

Today's Extremes

State Highs State Lows

Community

WunderPhotos

Upload Photos

1,825,396 photos uploaded!

WunderBlogs® & News

Nearby

Air Quality

  Air Quality AQ Index Pollutant
Not available.

Snow Depth

Station Depth Elevation

Earthquake Activity

City Distance Mag. Time & Date
Minimum magnitude displayed is 2.5.

Coastal Water Temperatures

Place Temperature

Stations

Nearby Weather Stations

Station Location Temp. Windchill Dew Point Humidity Wind Precip. Elev Updated Type